sensor_id;sensor_type;location;lat;lon;timestamp;P1;durP1;ratioP1;P2;durP2;ratioP2
38865;SDS011;62686;48.984;8.394;2023-07-29T00:00:55;4.90;;;3.70;;
38865;SDS011;62686;48.984;8.394;2023-07-29T00:03:23;4.10;;;3.70;;
38865;SDS011;62686;48.984;8.394;2023-07-29T00:05:51;4.00;;;3.70;;
38865;SDS011;62686;48.984;8.394;2023-07-29T00:08:20;3.92;;;3.60;;
38865;SDS011;62686;48.984;8.394;2023-07-29T00:10:48;4.43;;;3.38;;
38865;SDS011;62686;48.984;8.394;2023-07-29T00:13:17;3.97;;;3.58;;
38865;SDS011;62686;48.984;8.394;2023-07-29T00:15:47;6.32;;;3.17;;
38865;SDS011;62686;48.984;8.394;2023-07-29T00:18:15;4.93;;;3.30;;
38865;SDS011;62686;48.984;8.394;2023-07-29T00:20:44;3.22;;;2.80;;
38865;SDS011;62686;48.984;8.394;2023-07-29T00:23:12;4.13;;;2.55;;
38865;SDS011;62686;48.984;8.394;2023-07-29T00:25:40;3.15;;;2.40;;
38865;SDS011;62686;48.984;8.394;2023-07-29T00:28:08;3.08;;;2.53;;
38865;SDS011;62686;48.984;8.394;2023-07-29T00:30:38;3.75;;;2.75;;
38865;SDS011;62686;48.984;8.394;2023-07-29T00:33:06;4.28;;;2.40;;
38865;SDS011;62686;48.984;8.394;2023-07-29T00:35:35;2.88;;;2.47;;
38865;SDS011;62686;48.984;8.394;2023-07-29T00:38:03;3.40;;;2.60;;
38865;SDS011;62686;48.984;8.394;2023-07-29T00:40:31;3.10;;;2.25;;
38865;SDS011;62686;48.984;8.394;2023-07-29T00:43:03;2.28;;;2.08;;
38865;SDS011;62686;48.984;8.394;2023-07-29T00:45:32;4.78;;;2.55;;
38865;SDS011;62686;48.984;8.394;2023-07-29T00:48:02;4.45;;;2.72;;
38865;SDS011;62686;48.984;8.394;2023-07-29T00:50:31;5.47;;;2.53;;
38865;SDS011;62686;48.984;8.394;2023-07-29T00:53:00;5.03;;;2.95;;
38865;SDS011;62686;48.984;8.394;2023-07-29T00:55:28;4.22;;;3.03;;
38865;SDS011;62686;48.984;8.394;2023-07-29T00:57:56;5.75;;;3.60;;
38865;SDS011;62686;48.984;8.394;2023-07-29T01:00:25;10.93;;;3.10;;
38865;SDS011;62686;48.984;8.394;2023-07-29T01:02:53;5.95;;;2.90;;
38865;SDS011;62686;48.984;8.394;2023-07-29T01:05:23;5.25;;;3.13;;
38865;SDS011;62686;48.984;8.394;2023-07-29T01:08:02;2.92;;;2.15;;
38865;SDS011;62686;48.984;8.394;2023-07-29T01:10:37;6.60;;;2.40;;
38865;SDS011;62686;48.984;8.394;2023-07-29T01:13:16;3.13;;;2.28;;
38865;SDS011;62686;48.984;8.394;2023-07-29T01:15:49;2.17;;;1.98;;
38865;SDS011;62686;48.984;8.394;2023-07-29T01:18:23;5.38;;;2.15;;
38865;SDS011;62686;48.984;8.394;2023-07-29T01:20:58;6.88;;;2.05;;
38865;SDS011;62686;48.984;8.394;2023-07-29T01:23:31;4.07;;;2.30;;
38865;SDS011;62686;48.984;8.394;2023-07-29T01:26:00;6.75;;;2.13;;
38865;SDS011;62686;48.984;8.394;2023-07-29T01:28:28;4.97;;;2.30;;
38865;SDS011;62686;48.984;8.394;2023-07-29T01:30:57;3.50;;;2.08;;
38865;SDS011;62686;48.984;8.394;2023-07-29T01:33:30;6.22;;;2.25;;
38865;SDS011;62686;48.984;8.394;2023-07-29T01:36:03;2.92;;;2.08;;
38865;SDS011;62686;48.984;8.394;2023-07-29T01:38:37;3.40;;;2.60;;
38865;SDS011;62686;48.984;8.394;2023-07-29T01:41:08;4.13;;;2.33;;
38865;SDS011;62686;48.984;8.394;2023-07-29T01:43:37;4.43;;;2.55;;
38865;SDS011;62686;48.984;8.394;2023-07-29T01:46:10;2.72;;;2.10;;
38865;SDS011;62686;48.984;8.394;2023-07-29T01:48:39;5.85;;;2.40;;
38865;SDS011;62686;48.984;8.394;2023-07-29T01:51:07;2.45;;;2.20;;
38865;SDS011;62686;48.984;8.394;2023-07-29T01:53:39;4.25;;;2.50;;
38865;SDS011;62686;48.984;8.394;2023-07-29T01:56:07;4.60;;;2.85;;
38865;SDS011;62686;48.984;8.394;2023-07-29T01:58:35;2.60;;;2.40;;
38865;SDS011;62686;48.984;8.394;2023-07-29T02:01:03;3.72;;;2.70;;
38865;SDS011;62686;48.984;8.394;2023-07-29T02:03:31;3.08;;;2.65;;
38865;SDS011;62686;48.984;8.394;2023-07-29T02:06:00;5.57;;;3.20;;
38865;SDS011;62686;48.984;8.394;2023-07-29T02:08:28;2.80;;;2.53;;
38865;SDS011;62686;48.984;8.394;2023-07-29T02:10:57;2.72;;;2.40;;
38865;SDS011;62686;48.984;8.394;2023-07-29T02:13:26;6.18;;;2.35;;
38865;SDS011;62686;48.984;8.394;2023-07-29T02:15:54;3.67;;;2.55;;
38865;SDS011;62686;48.984;8.394;2023-07-29T02:18:22;10.90;;;2.72;;
38865;SDS011;62686;48.984;8.394;2023-07-29T02:20:50;2.95;;;2.58;;
38865;SDS011;62686;48.984;8.394;2023-07-29T02:23:18;3.17;;;2.60;;
38865;SDS011;62686;48.984;8.394;2023-07-29T02:25:47;6.60;;;2.70;;
38865;SDS011;62686;48.984;8.394;2023-07-29T02:28:16;2.42;;;2.22;;
38865;SDS011;62686;48.984;8.394;2023-07-29T02:30:44;4.90;;;2.40;;
38865;SDS011;62686;48.984;8.394;2023-07-29T02:33:13;2.45;;;2.25;;
38865;SDS011;62686;48.984;8.394;2023-07-29T02:35:41;6.03;;;2.80;;
38865;SDS011;62686;48.984;8.394;2023-07-29T02:38:09;4.28;;;2.70;;
38865;SDS011;62686;48.984;8.394;2023-07-29T02:40:37;2.88;;;2.20;;
38865;SDS011;62686;48.984;8.394;2023-07-29T02:43:05;6.60;;;2.50;;
38865;SDS011;62686;48.984;8.394;2023-07-29T02:45:35;3.90;;;2.28;;
38865;SDS011;62686;48.984;8.394;2023-07-29T02:48:03;3.65;;;2.50;;
38865;SDS011;62686;48.984;8.394;2023-07-29T02:50:31;4.95;;;2.22;;
38865;SDS011;62686;48.984;8.394;2023-07-29T02:53:02;2.58;;;2.38;;
38865;SDS011;62686;48.984;8.394;2023-07-29T02:55:30;3.72;;;2.25;;
38865;SDS011;62686;48.984;8.394;2023-07-29T02:57:58;2.83;;;2.30;;
38865;SDS011;62686;48.984;8.394;2023-07-29T03:00:26;4.15;;;2.20;;
38865;SDS011;62686;48.984;8.394;2023-07-29T03:02:56;2.88;;;2.40;;
38865;SDS011;62686;48.984;8.394;2023-07-29T03:05:24;4.50;;;2.00;;
38865;SDS011;62686;48.984;8.394;2023-07-29T03:07:55;5.47;;;2.10;;
38865;SDS011;62686;48.984;8.394;2023-07-29T03:10:23;4.00;;;1.92;;
38865;SDS011;62686;48.984;8.394;2023-07-29T03:12:53;4.95;;;1.95;;
38865;SDS011;62686;48.984;8.394;2023-07-29T03:15:23;3.97;;;2.45;;
38865;SDS011;62686;48.984;8.394;2023-07-29T03:17:51;3.70;;;2.10;;
38865;SDS011;62686;48.984;8.394;2023-07-29T03:20:21;2.25;;;2.00;;
38865;SDS011;62686;48.984;8.394;2023-07-29T03:22:49;2.10;;;1.90;;
38865;SDS011;62686;48.984;8.394;2023-07-29T03:25:17;5.53;;;2.00;;
38865;SDS011;62686;48.984;8.394;2023-07-29T03:27:46;4.20;;;2.10;;
38865;SDS011;62686;48.984;8.394;2023-07-29T03:30:18;2.53;;;2.05;;
38865;SDS011;62686;48.984;8.394;2023-07-29T03:32:47;5.95;;;2.40;;
38865;SDS011;62686;48.984;8.394;2023-07-29T03:35:16;3.47;;;1.88;;
38865;SDS011;62686;48.984;8.394;2023-07-29T03:37:46;2.15;;;1.95;;
38865;SDS011;62686;48.984;8.394;2023-07-29T03:40:14;5.15;;;2.25;;
38865;SDS011;62686;48.984;8.394;2023-07-29T03:42:42;4.07;;;2.08;;
38865;SDS011;62686;48.984;8.394;2023-07-29T03:45:10;4.22;;;2.15;;
38865;SDS011;62686;48.984;8.394;2023-07-29T03:47:38;5.70;;;2.35;;
38865;SDS011;62686;48.984;8.394;2023-07-29T03:50:07;2.58;;;2.10;;
38865;SDS011;62686;48.984;8.394;2023-07-29T03:52:35;4.55;;;2.30;;
38865;SDS011;62686;48.984;8.394;2023-07-29T03:55:06;2.83;;;2.20;;
38865;SDS011;62686;48.984;8.394;2023-07-29T03:57:35;2.10;;;1.90;;
38865;SDS011;62686;48.984;8.394;2023-07-29T04:00:03;2.70;;;2.25;;
38865;SDS011;62686;48.984;8.394;2023-07-29T04:02:32;2.58;;;2.00;;
38865;SDS011;62686;48.984;8.394;2023-07-29T04:05:04;2.85;;;2.40;;
38865;SDS011;62686;48.984;8.394;2023-07-29T04:07:34;6.95;;;2.40;;
38865;SDS011;62686;48.984;8.394;2023-07-29T04:10:03;3.90;;;2.60;;
38865;SDS011;62686;48.984;8.394;2023-07-29T04:12:35;6.97;;;2.15;;
38865;SDS011;62686;48.984;8.394;2023-07-29T04:15:04;5.28;;;2.33;;
38865;SDS011;62686;48.984;8.394;2023-07-29T04:17:32;3.33;;;2.55;;
38865;SDS011;62686;48.984;8.394;2023-07-29T04:20:01;2.58;;;2.30;;
38865;SDS011;62686;48.984;8.394;2023-07-29T04:22:29;2.80;;;2.50;;
38865;SDS011;62686;48.984;8.394;2023-07-29T04:24:57;2.95;;;2.38;;
38865;SDS011;62686;48.984;8.394;2023-07-29T04:27:27;2.80;;;2.20;;
38865;SDS011;62686;48.984;8.394;2023-07-29T04:29:55;4.40;;;2.00;;
38865;SDS011;62686;48.984;8.394;2023-07-29T04:32:23;2.20;;;2.00;;
38865;SDS011;62686;48.984;8.394;2023-07-29T04:34:52;3.90;;;2.10;;
38865;SDS011;62686;48.984;8.394;2023-07-29T04:37:20;2.28;;;2.00;;
38865;SDS011;62686;48.984;8.394;2023-07-29T04:39:48;2.17;;;1.98;;
38865;SDS011;62686;48.984;8.394;2023-07-29T04:42:17;3.45;;;1.90;;
38865;SDS011;62686;48.984;8.394;2023-07-29T04:44:46;4.13;;;2.40;;
38865;SDS011;62686;48.984;8.394;2023-07-29T04:47:14;3.30;;;2.22;;
38865;SDS011;62686;48.984;8.394;2023-07-29T04:49:42;6.03;;;2.92;;
38865;SDS011;62686;48.984;8.394;2023-07-29T04:52:11;5.10;;;2.60;;
38865;SDS011;62686;48.984;8.394;2023-07-29T04:54:39;2.78;;;2.40;;
38865;SDS011;62686;48.984;8.394;2023-07-29T04:57:08;3.58;;;2.67;;
38865;SDS011;62686;48.984;8.394;2023-07-29T04:59:36;3.17;;;2.28;;
38865;SDS011;62686;48.984;8.394;2023-07-29T05:02:06;3.35;;;2.35;;
38865;SDS011;62686;48.984;8.394;2023-07-29T05:04:34;2.78;;;2.03;;
38865;SDS011;62686;48.984;8.394;2023-07-29T05:07:03;7.70;;;2.25;;
38865;SDS011;62686;48.984;8.394;2023-07-29T05:09:31;3.55;;;2.25;;
38865;SDS011;62686;48.984;8.394;2023-07-29T05:11:59;3.83;;;2.38;;
38865;SDS011;62686;48.984;8.394;2023-07-29T05:14:28;2.08;;;1.85;;
38865;SDS011;62686;48.984;8.394;2023-07-29T05:16:56;2.28;;;2.00;;
38865;SDS011;62686;48.984;8.394;2023-07-29T05:19:26;2.95;;;2.03;;
38865;SDS011;62686;48.984;8.394;2023-07-29T05:21:54;4.35;;;1.75;;
38865;SDS011;62686;48.984;8.394;2023-07-29T05:24:23;4.90;;;2.38;;
38865;SDS011;62686;48.984;8.394;2023-07-29T05:26:51;2.47;;;2.05;;
38865;SDS011;62686;48.984;8.394;2023-07-29T05:29:20;6.72;;;2.72;;
38865;SDS011;62686;48.984;8.394;2023-07-29T05:34:22;6.45;;;2.38;;
38865;SDS011;62686;48.984;8.394;2023-07-29T05:36:54;5.32;;;2.22;;
38865;SDS011;62686;48.984;8.394;2023-07-29T05:39:22;3.20;;;2.10;;
38865;SDS011;62686;48.984;8.394;2023-07-29T05:41:51;6.90;;;2.42;;
38865;SDS011;62686;48.984;8.394;2023-07-29T05:44:19;2.47;;;1.85;;
38865;SDS011;62686;48.984;8.394;2023-07-29T05:46:48;6.55;;;2.35;;
38865;SDS011;62686;48.984;8.394;2023-07-29T05:49:16;4.97;;;1.95;;
38865;SDS011;62686;48.984;8.394;2023-07-29T05:51:45;2.38;;;1.73;;
38865;SDS011;62686;48.984;8.394;2023-07-29T05:54:14;4.03;;;1.85;;
38865;SDS011;62686;48.984;8.394;2023-07-29T05:56:42;3.03;;;1.98;;
38865;SDS011;62686;48.984;8.394;2023-07-29T05:59:10;3.70;;;2.22;;
38865;SDS011;62686;48.984;8.394;2023-07-29T06:01:38;2.55;;;1.60;;
38865;SDS011;62686;48.984;8.394;2023-07-29T06:04:07;3.65;;;1.77;;
38865;SDS011;62686;48.984;8.394;2023-07-29T06:06:35;1.70;;;1.60;;
38865;SDS011;62686;48.984;8.394;2023-07-29T06:09:05;2.40;;;1.55;;
38865;SDS011;62686;48.984;8.394;2023-07-29T06:11:33;2.10;;;1.90;;
38865;SDS011;62686;48.984;8.394;2023-07-29T06:14:02;1.85;;;1.65;;
38865;SDS011;62686;48.984;8.394;2023-07-29T06:16:30;3.35;;;1.60;;
38865;SDS011;62686;48.984;8.394;2023-07-29T06:18:58;3.58;;;1.90;;
38865;SDS011;62686;48.984;8.394;2023-07-29T06:21:26;2.17;;;1.80;;
38865;SDS011;62686;48.984;8.394;2023-07-29T06:23:54;3.50;;;1.80;;
38865;SDS011;62686;48.984;8.394;2023-07-29T06:26:24;2.17;;;1.83;;
38865;SDS011;62686;48.984;8.394;2023-07-29T06:28:52;1.77;;;1.67;;
38865;SDS011;62686;48.984;8.394;2023-07-29T06:31:21;2.08;;;1.88;;
38865;SDS011;62686;48.984;8.394;2023-07-29T06:36:44;2.55;;;2.20;;
38865;SDS011;62686;48.984;8.394;2023-07-29T06:41:56;3.10;;;2.33;;
38865;SDS011;62686;48.984;8.394;2023-07-29T06:44:24;2.15;;;1.95;;
38865;SDS011;62686;48.984;8.394;2023-07-29T06:46:52;3.28;;;2.17;;
38865;SDS011;62686;48.984;8.394;2023-07-29T06:49:20;3.92;;;1.90;;
38865;SDS011;62686;48.984;8.394;2023-07-29T06:57:17;1.95;;;1.80;;
38865;SDS011;62686;48.984;8.394;2023-07-29T06:59:45;2.35;;;1.77;;
38865;SDS011;62686;48.984;8.394;2023-07-29T07:02:14;2.63;;;1.77;;
38865;SDS011;62686;48.984;8.394;2023-07-29T07:04:42;2.53;;;1.85;;
38865;SDS011;62686;48.984;8.394;2023-07-29T07:07:10;4.55;;;1.90;;
38865;SDS011;62686;48.984;8.394;2023-07-29T07:09:38;3.42;;;1.92;;
38865;SDS011;62686;48.984;8.394;2023-07-29T07:12:07;4.28;;;1.70;;
38865;SDS011;62686;48.984;8.394;2023-07-29T07:14:37;2.00;;;1.80;;
38865;SDS011;62686;48.984;8.394;2023-07-29T07:17:05;2.83;;;1.65;;
38865;SDS011;62686;48.984;8.394;2023-07-29T07:19:34;2.35;;;1.98;;
38865;SDS011;62686;48.984;8.394;2023-07-29T07:22:03;1.83;;;1.60;;
38865;SDS011;62686;48.984;8.394;2023-07-29T07:24:31;2.78;;;1.70;;
38865;SDS011;62686;48.984;8.394;2023-07-29T07:26:59;2.00;;;1.30;;
38865;SDS011;62686;48.984;8.394;2023-07-29T07:29:28;2.08;;;1.30;;
38865;SDS011;62686;48.984;8.394;2023-07-29T07:31:58;2.90;;;1.48;;
38865;SDS011;62686;48.984;8.394;2023-07-29T07:34:27;3.03;;;1.50;;
38865;SDS011;62686;48.984;8.394;2023-07-29T07:36:55;3.45;;;1.40;;
38865;SDS011;62686;48.984;8.394;2023-07-29T07:39:23;1.58;;;1.30;;
38865;SDS011;62686;48.984;8.394;2023-07-29T07:41:51;3.08;;;1.50;;
38865;SDS011;62686;48.984;8.394;2023-07-29T07:44:20;3.60;;;1.23;;
38865;SDS011;62686;48.984;8.394;2023-07-29T07:46:48;1.58;;;1.33;;
38865;SDS011;62686;48.984;8.394;2023-07-29T07:49:17;3.05;;;1.30;;
38865;SDS011;62686;48.984;8.394;2023-07-29T07:51:46;1.40;;;0.93;;
38865;SDS011;62686;48.984;8.394;2023-07-29T07:54:14;1.55;;;0.90;;
38865;SDS011;62686;48.984;8.394;2023-07-29T07:56:42;2.03;;;1.20;;
38865;SDS011;62686;48.984;8.394;2023-07-29T07:59:11;1.60;;;1.15;;
38865;SDS011;62686;48.984;8.394;2023-07-29T08:01:40;1.23;;;0.93;;
38865;SDS011;62686;48.984;8.394;2023-07-29T08:04:10;1.92;;;1.15;;
38865;SDS011;62686;48.984;8.394;2023-07-29T08:06:39;1.20;;;1.00;;
38865;SDS011;62686;48.984;8.394;2023-07-29T08:09:08;2.22;;;1.05;;
38865;SDS011;62686;48.984;8.394;2023-07-29T08:11:36;1.73;;;1.17;;
38865;SDS011;62686;48.984;8.394;2023-07-29T08:14:04;1.60;;;1.00;;
38865;SDS011;62686;48.984;8.394;2023-07-29T08:16:32;2.28;;;1.40;;
38865;SDS011;62686;48.984;8.394;2023-07-29T08:19:01;3.55;;;1.58;;
38865;SDS011;62686;48.984;8.394;2023-07-29T08:21:29;3.38;;;1.80;;
38865;SDS011;62686;48.984;8.394;2023-07-29T08:23:58;5.03;;;1.80;;
38865;SDS011;62686;48.984;8.394;2023-07-29T08:26:27;3.08;;;1.50;;
38865;SDS011;62686;48.984;8.394;2023-07-29T08:28:55;3.25;;;1.20;;
38865;SDS011;62686;48.984;8.394;2023-07-29T08:31:23;1.60;;;1.20;;
38865;SDS011;62686;48.984;8.394;2023-07-29T08:33:52;2.70;;;1.20;;
38865;SDS011;62686;48.984;8.394;2023-07-29T08:36:20;2.17;;;1.30;;
38865;SDS011;62686;48.984;8.394;2023-07-29T08:38:48;2.30;;;1.38;;
38865;SDS011;62686;48.984;8.394;2023-07-29T08:41:19;1.55;;;1.40;;
38865;SDS011;62686;48.984;8.394;2023-07-29T08:43:52;2.28;;;1.67;;
38865;SDS011;62686;48.984;8.394;2023-07-29T08:46:29;2.35;;;1.60;;
38865;SDS011;62686;48.984;8.394;2023-07-29T08:48:57;3.08;;;1.70;;
38865;SDS011;62686;48.984;8.394;2023-07-29T08:51:28;2.00;;;1.63;;
38865;SDS011;62686;48.984;8.394;2023-07-29T08:53:58;2.40;;;1.70;;
38865;SDS011;62686;48.984;8.394;2023-07-29T08:56:28;3.65;;;1.60;;
38865;SDS011;62686;48.984;8.394;2023-07-29T08:58:57;3.25;;;2.03;;
38865;SDS011;62686;48.984;8.394;2023-07-29T09:01:28;2.72;;;1.70;;
38865;SDS011;62686;48.984;8.394;2023-07-29T09:03:57;2.00;;;1.60;;
38865;SDS011;62686;48.984;8.394;2023-07-29T09:06:25;1.60;;;1.42;;
38865;SDS011;62686;48.984;8.394;2023-07-29T09:08:54;2.45;;;1.77;;
38865;SDS011;62686;48.984;8.394;2023-07-29T09:11:23;2.95;;;1.40;;
38865;SDS011;62686;48.984;8.394;2023-07-29T09:13:54;1.50;;;1.40;;
38865;SDS011;62686;48.984;8.394;2023-07-29T09:16:22;1.95;;;1.30;;
38865;SDS011;62686;48.984;8.394;2023-07-29T09:18:51;2.22;;;1.33;;
38865;SDS011;62686;48.984;8.394;2023-07-29T09:21:22;1.40;;;1.30;;
38865;SDS011;62686;48.984;8.394;2023-07-29T09:23:53;1.10;;;1.00;;
38865;SDS011;62686;48.984;8.394;2023-07-29T09:26:22;1.83;;;1.30;;
38865;SDS011;62686;48.984;8.394;2023-07-29T09:28:51;1.00;;;0.90;;
38865;SDS011;62686;48.984;8.394;2023-07-29T09:31:22;0.95;;;0.90;;
38865;SDS011;62686;48.984;8.394;2023-07-29T09:33:55;0.70;;;0.68;;
38865;SDS011;62686;48.984;8.394;2023-07-29T09:36:25;1.02;;;0.80;;
38865;SDS011;62686;48.984;8.394;2023-07-29T09:38:54;1.35;;;0.77;;
38865;SDS011;62686;48.984;8.394;2023-07-29T09:41:26;1.48;;;0.60;;
38865;SDS011;62686;48.984;8.394;2023-07-29T09:44:20;2.17;;;1.00;;
38865;SDS011;62686;48.984;8.394;2023-07-29T09:46:50;2.15;;;0.90;;
38865;SDS011;62686;48.984;8.394;2023-07-29T09:49:38;1.23;;;0.82;;
38865;SDS011;62686;48.984;8.394;2023-07-29T09:52:15;2.38;;;1.10;;
38865;SDS011;62686;48.984;8.394;2023-07-29T09:54:45;0.70;;;0.70;;
38865;SDS011;62686;48.984;8.394;2023-07-29T09:57:16;2.85;;;1.00;;
38865;SDS011;62686;48.984;8.394;2023-07-29T09:59:55;1.67;;;0.90;;
38865;SDS011;62686;48.984;8.394;2023-07-29T10:02:51;1.08;;;0.98;;
38865;SDS011;62686;48.984;8.394;2023-07-29T10:05:21;2.60;;;1.00;;
38865;SDS011;62686;48.984;8.394;2023-07-29T10:07:49;1.13;;;0.90;;
38865;SDS011;62686;48.984;8.394;2023-07-29T10:10:19;2.40;;;0.98;;
38865;SDS011;62686;48.984;8.394;2023-07-29T10:12:48;1.58;;;0.90;;
38865;SDS011;62686;48.984;8.394;2023-07-29T10:15:19;1.45;;;0.98;;
38865;SDS011;62686;48.984;8.394;2023-07-29T10:17:48;0.85;;;0.80;;
38865;SDS011;62686;48.984;8.394;2023-07-29T10:20:18;1.60;;;1.00;;
38865;SDS011;62686;48.984;8.394;2023-07-29T10:22:47;1.05;;;0.77;;
38865;SDS011;62686;48.984;8.394;2023-07-29T10:25:16;1.63;;;0.80;;
38865;SDS011;62686;48.984;8.394;2023-07-29T10:27:47;1.00;;;0.90;;
38865;SDS011;62686;48.984;8.394;2023-07-29T10:30:16;1.67;;;0.75;;
38865;SDS011;62686;48.984;8.394;2023-07-29T10:32:47;2.53;;;0.82;;
38865;SDS011;62686;48.984;8.394;2023-07-29T10:35:16;1.02;;;0.88;;
38865;SDS011;62686;48.984;8.394;2023-07-29T10:37:45;0.95;;;0.75;;
38865;SDS011;62686;48.984;8.394;2023-07-29T10:40:17;1.90;;;0.90;;
38865;SDS011;62686;48.984;8.394;2023-07-29T10:42:59;1.20;;;0.77;;
38865;SDS011;62686;48.984;8.394;2023-07-29T10:45:37;1.38;;;0.73;;
38865;SDS011;62686;48.984;8.394;2023-07-29T10:48:06;1.33;;;0.80;;
38865;SDS011;62686;48.984;8.394;2023-07-29T10:50:40;2.85;;;0.95;;
38865;SDS011;62686;48.984;8.394;2023-07-29T10:53:11;0.70;;;0.70;;
38865;SDS011;62686;48.984;8.394;2023-07-29T10:55:39;1.85;;;0.88;;
38865;SDS011;62686;48.984;8.394;2023-07-29T10:58:11;1.02;;;0.90;;
38865;SDS011;62686;48.984;8.394;2023-07-29T11:00:43;2.40;;;0.93;;
38865;SDS011;62686;48.984;8.394;2023-07-29T11:03:12;1.10;;;0.90;;
38865;SDS011;62686;48.984;8.394;2023-07-29T11:05:43;0.80;;;0.70;;
38865;SDS011;62686;48.984;8.394;2023-07-29T11:08:20;1.35;;;0.90;;
38865;SDS011;62686;48.984;8.394;2023-07-29T11:11:00;1.35;;;0.90;;
38865;SDS011;62686;48.984;8.394;2023-07-29T11:13:31;1.38;;;0.95;;
38865;SDS011;62686;48.984;8.394;2023-07-29T11:16:02;1.02;;;0.75;;
38865;SDS011;62686;48.984;8.394;2023-07-29T11:18:32;1.73;;;1.23;;
38865;SDS011;62686;48.984;8.394;2023-07-29T11:21:02;2.78;;;1.00;;
38865;SDS011;62686;48.984;8.394;2023-07-29T11:23:32;1.75;;;1.02;;
38865;SDS011;62686;48.984;8.394;2023-07-29T11:26:01;3.17;;;0.90;;
38865;SDS011;62686;48.984;8.394;2023-07-29T11:28:30;2.78;;;1.00;;
38865;SDS011;62686;48.984;8.394;2023-07-29T11:31:06;1.33;;;1.02;;
38865;SDS011;62686;48.984;8.394;2023-07-29T11:33:34;1.10;;;1.00;;
38865;SDS011;62686;48.984;8.394;2023-07-29T11:36:03;3.83;;;1.08;;
38865;SDS011;62686;48.984;8.394;2023-07-29T11:38:31;2.90;;;1.20;;
38865;SDS011;62686;48.984;8.394;2023-07-29T11:41:03;1.00;;;0.90;;
38865;SDS011;62686;48.984;8.394;2023-07-29T11:43:34;1.83;;;1.10;;
38865;SDS011;62686;48.984;8.394;2023-07-29T11:46:03;1.40;;;1.02;;
38865;SDS011;62686;48.984;8.394;2023-07-29T11:48:33;1.00;;;0.90;;
38865;SDS011;62686;48.984;8.394;2023-07-29T11:51:01;1.17;;;1.08;;
38865;SDS011;62686;48.984;8.394;2023-07-29T11:53:30;2.38;;;1.17;;
38865;SDS011;62686;48.984;8.394;2023-07-29T11:55:59;2.55;;;1.00;;
38865;SDS011;62686;48.984;8.394;2023-07-29T11:58:27;1.23;;;0.90;;
38865;SDS011;62686;48.984;8.394;2023-07-29T12:00:56;3.22;;;0.90;;
38865;SDS011;62686;48.984;8.394;2023-07-29T12:03:25;1.42;;;0.80;;
38865;SDS011;62686;48.984;8.394;2023-07-29T12:05:56;2.50;;;1.00;;
38865;SDS011;62686;48.984;8.394;2023-07-29T12:08:24;2.08;;;1.10;;
38865;SDS011;62686;48.984;8.394;2023-07-29T12:10:53;3.28;;;1.08;;
38865;SDS011;62686;48.984;8.394;2023-07-29T12:13:23;3.60;;;1.20;;
38865;SDS011;62686;48.984;8.394;2023-07-29T12:15:52;2.72;;;1.00;;
38865;SDS011;62686;48.984;8.394;2023-07-29T12:18:29;1.08;;;0.98;;
38865;SDS011;62686;48.984;8.394;2023-07-29T12:20:59;2.05;;;1.17;;
38865;SDS011;62686;48.984;8.394;2023-07-29T12:23:28;2.53;;;1.08;;
38865;SDS011;62686;48.984;8.394;2023-07-29T12:25:57;3.00;;;1.10;;
38865;SDS011;62686;48.984;8.394;2023-07-29T12:28:26;1.10;;;1.00;;
38865;SDS011;62686;48.984;8.394;2023-07-29T12:30:54;1.42;;;1.00;;
38865;SDS011;62686;48.984;8.394;2023-07-29T12:33:29;1.63;;;1.02;;
38865;SDS011;62686;48.984;8.394;2023-07-29T12:35:59;1.90;;;1.00;;
38865;SDS011;62686;48.984;8.394;2023-07-29T12:38:28;3.13;;;0.90;;
38865;SDS011;62686;48.984;8.394;2023-07-29T12:40:56;1.38;;;1.17;;
38865;SDS011;62686;48.984;8.394;2023-07-29T12:43:25;2.40;;;1.13;;
38865;SDS011;62686;48.984;8.394;2023-07-29T12:45:53;1.17;;;1.08;;
38865;SDS011;62686;48.984;8.394;2023-07-29T12:48:22;1.23;;;0.98;;
38865;SDS011;62686;48.984;8.394;2023-07-29T12:50:50;1.27;;;1.17;;
38865;SDS011;62686;48.984;8.394;2023-07-29T12:53:20;1.10;;;0.90;;
38865;SDS011;62686;48.984;8.394;2023-07-29T12:55:49;1.27;;;1.17;;
38865;SDS011;62686;48.984;8.394;2023-07-29T12:58:17;1.92;;;0.95;;
38865;SDS011;62686;48.984;8.394;2023-07-29T13:00:45;2.08;;;1.00;;
38865;SDS011;62686;48.984;8.394;2023-07-29T13:03:13;1.77;;;1.10;;
38865;SDS011;62686;48.984;8.394;2023-07-29T13:05:42;0.95;;;0.85;;
38865;SDS011;62686;48.984;8.394;2023-07-29T13:08:10;1.10;;;1.00;;
38865;SDS011;62686;48.984;8.394;2023-07-29T13:10:39;2.30;;;1.10;;
38865;SDS011;62686;48.984;8.394;2023-07-29T13:13:09;1.35;;;1.10;;
38865;SDS011;62686;48.984;8.394;2023-07-29T13:15:37;1.17;;;1.08;;
38865;SDS011;62686;48.984;8.394;2023-07-29T13:18:06;1.20;;;1.10;;
38865;SDS011;62686;48.984;8.394;2023-07-29T13:20:34;1.30;;;1.00;;
38865;SDS011;62686;48.984;8.394;2023-07-29T13:23:03;1.02;;;0.93;;
38865;SDS011;62686;48.984;8.394;2023-07-29T13:25:32;1.75;;;1.05;;
38865;SDS011;62686;48.984;8.394;2023-07-29T13:28:01;2.63;;;1.02;;
38865;SDS011;62686;48.984;8.394;2023-07-29T13:30:30;1.13;;;1.00;;
38865;SDS011;62686;48.984;8.394;2023-07-29T13:32:58;2.20;;;1.27;;
38865;SDS011;62686;48.984;8.394;2023-07-29T13:35:26;3.67;;;1.17;;
38865;SDS011;62686;48.984;8.394;2023-07-29T13:37:56;1.10;;;1.00;;
38865;SDS011;62686;48.984;8.394;2023-07-29T13:40:24;2.40;;;1.20;;
38865;SDS011;62686;48.984;8.394;2023-07-29T13:42:52;2.55;;;1.08;;
38865;SDS011;62686;48.984;8.394;2023-07-29T13:45:22;1.10;;;1.00;;
38865;SDS011;62686;48.984;8.394;2023-07-29T13:47:50;1.65;;;0.90;;
38865;SDS011;62686;48.984;8.394;2023-07-29T13:50:19;1.30;;;1.00;;
38865;SDS011;62686;48.984;8.394;2023-07-29T13:52:47;2.50;;;1.10;;
38865;SDS011;62686;48.984;8.394;2023-07-29T13:55:16;1.80;;;1.20;;
38865;SDS011;62686;48.984;8.394;2023-07-29T13:57:44;1.13;;;1.02;;
38865;SDS011;62686;48.984;8.394;2023-07-29T14:00:12;2.88;;;1.08;;
38865;SDS011;62686;48.984;8.394;2023-07-29T14:02:42;1.10;;;1.00;;
38865;SDS011;62686;48.984;8.394;2023-07-29T14:05:11;1.38;;;1.25;;
38865;SDS011;62686;48.984;8.394;2023-07-29T14:07:39;1.50;;;1.10;;
38865;SDS011;62686;48.984;8.394;2023-07-29T14:10:07;2.05;;;1.10;;
38865;SDS011;62686;48.984;8.394;2023-07-29T14:12:35;1.08;;;0.98;;
38865;SDS011;62686;48.984;8.394;2023-07-29T14:15:04;1.10;;;1.00;;
38865;SDS011;62686;48.984;8.394;2023-07-29T14:17:33;1.52;;;1.15;;
38865;SDS011;62686;48.984;8.394;2023-07-29T14:20:03;1.30;;;1.20;;
38865;SDS011;62686;48.984;8.394;2023-07-29T14:22:32;1.15;;;1.05;;
38865;SDS011;62686;48.984;8.394;2023-07-29T14:25:00;1.15;;;1.05;;
38865;SDS011;62686;48.984;8.394;2023-07-29T14:27:28;1.45;;;1.20;;
38865;SDS011;62686;48.984;8.394;2023-07-29T14:29:57;1.33;;;1.10;;
38865;SDS011;62686;48.984;8.394;2023-07-29T14:32:25;2.00;;;1.25;;
38865;SDS011;62686;48.984;8.394;2023-07-29T14:34:53;1.13;;;1.02;;
38865;SDS011;62686;48.984;8.394;2023-07-29T14:37:23;1.23;;;1.00;;
38865;SDS011;62686;48.984;8.394;2023-07-29T14:39:51;1.25;;;1.13;;
38865;SDS011;62686;48.984;8.394;2023-07-29T14:42:20;1.42;;;1.08;;
38865;SDS011;62686;48.984;8.394;2023-07-29T14:44:48;1.65;;;1.35;;
38865;SDS011;62686;48.984;8.394;2023-07-29T14:47:17;1.20;;;1.05;;
38865;SDS011;62686;48.984;8.394;2023-07-29T14:49:45;1.15;;;1.05;;
38865;SDS011;62686;48.984;8.394;2023-07-29T14:52:13;1.50;;;1.30;;
38865;SDS011;62686;48.984;8.394;2023-07-29T14:54:43;1.67;;;1.00;;
38865;SDS011;62686;48.984;8.394;2023-07-29T14:57:11;2.00;;;1.25;;
38865;SDS011;62686;48.984;8.394;2023-07-29T14:59:39;1.30;;;1.10;;
38865;SDS011;62686;48.984;8.394;2023-07-29T15:02:08;1.40;;;1.10;;
38865;SDS011;62686;48.984;8.394;2023-07-29T15:04:36;1.98;;;1.33;;
38865;SDS011;62686;48.984;8.394;2023-07-29T15:07:04;1.95;;;1.17;;
38865;SDS011;62686;48.984;8.394;2023-07-29T15:09:33;1.40;;;1.30;;
38865;SDS011;62686;48.984;8.394;2023-07-29T15:12:04;3.28;;;1.30;;
38865;SDS011;62686;48.984;8.394;2023-07-29T15:14:33;2.72;;;1.17;;